Time;durP1;ratioP1;P1;durP2;ratioP2;P2;SDS_P1;SDS_P2;PMS_P1;PMS_P2;Temp;Humidity;BMP_temperature;BMP_pressure;BME280_temperature;BME280_humidity;BME280_pressure;Samples;Min_cycle;Max_cycle;Signal;HPM_P1;HPM_P2
2023/02/19 00:01:46;;;;;;;4.53;2.73;;;7.00;74.30;;;;;;5027692;28;20209;-73
2023/02/19 00:04:16;;;;;;;2.43;2.20;;;7.00;74.60;;;;;;5036576;28;20199;-70
2023/02/19 00:06:43;;;;;;;3.00;2.77;;;6.90;74.80;;;;;;5033728;28;20204;-72
2023/02/19 00:09:10;;;;;;;3.13;2.77;;;6.90;74.90;;;;;;5030620;28;20264;-73
2023/02/19 00:11:37;;;;;;;3.63;2.87;;;6.90;75.00;;;;;;5050647;28;20183;-72
2023/02/19 00:14:02;;;;;;;3.63;2.83;;;6.90;74.90;;;;;;5047173;28;20245;-71
2023/02/19 00:16:34;;;;;;;3.10;2.63;;;6.90;75.40;;;;;;5047341;28;20180;-72
2023/02/19 00:19:02;;;;;;;2.93;2.70;;;6.80;75.00;;;;;;5050054;28;20271;-72
2023/02/19 00:21:28;;;;;;;2.83;2.53;;;6.80;75.90;;;;;;5050037;28;20183;-71
2023/02/19 00:24:00;;;;;;;3.83;2.80;;;6.80;75.50;;;;;;5048049;28;20183;-71
2023/02/19 00:26:26;;;;;;;2.40;2.20;;;6.70;75.10;;;;;;5053586;28;20175;-72
2023/02/19 00:28:53;;;;;;;3.17;2.17;;;6.70;75.20;;;;;;5054048;28;20208;-72
2023/02/19 00:31:18;;;;;;;4.47;2.77;;;6.80;75.60;;;;;;5049766;28;20183;-71
2023/02/19 00:33:46;;;;;;;2.53;2.23;;;6.70;75.20;;;;;;5051747;28;20179;-72
2023/02/19 00:36:13;;;;;;;3.17;2.90;;;6.70;76.00;;;;;;5045942;28;20266;-71
2023/02/19 00:38:40;;;;;;;4.77;2.47;;;6.70;75.90;;;;;;5047947;28;20189;-72
2023/02/19 00:41:19;;;;;;;2.40;2.30;;;6.60;75.90;;;;;;5051159;28;20265;-71
2023/02/19 00:43:58;;;;;;;3.73;3.10;;;6.60;75.80;;;;;;5051225;28;20183;-71
2023/02/19 00:46:33;;;;;;;2.87;2.60;;;6.60;75.80;;;;;;5054250;28;20170;-71
2023/02/19 00:48:59;;;;;;;2.90;2.13;;;6.60;76.00;;;;;;5046607;28;20215;-71
2023/02/19 00:51:28;;;;;;;5.77;2.90;;;6.60;75.90;;;;;;5052528;28;20233;-71
2023/02/19 00:53:54;;;;;;;3.53;3.10;;;6.50;76.20;;;;;;5047342;28;20565;-71
2023/02/19 00:56:19;;;;;;;6.63;2.23;;;6.50;76.20;;;;;;5050548;28;20231;-70
2023/02/19 00:58:46;;;;;;;2.63;2.30;;;6.50;76.40;;;;;;5050622;28;20183;-71
2023/02/19 01:01:12;;;;;;;6.33;3.00;;;6.60;75.50;;;;;;5047847;28;20187;-71
2023/02/19 01:03:39;;;;;;;7.63;2.70;;;6.60;76.10;;;;;;5048691;28;20198;-70
2023/02/19 01:06:06;;;;;;;4.13;2.90;;;6.60;76.00;;;;;;5046524;28;20187;-70
2023/02/19 01:08:32;;;;;;;2.83;2.57;;;6.50;76.30;;;;;;5047728;28;20207;-72
2023/02/19 01:10:59;;;;;;;2.77;2.17;;;6.50;76.40;;;;;;5050081;28;20201;-71
2023/02/19 01:13:27;;;;;;;2.73;2.17;;;6.50;76.60;;;;;;5048950;28;20191;-71
2023/02/19 01:15:53;;;;;;;2.70;2.50;;;6.50;76.40;;;;;;5048745;28;20190;-71
2023/02/19 01:18:19;;;;;;;7.33;2.47;;;6.50;76.40;;;;;;5048166;28;20264;-71
2023/02/19 01:20:45;;;;;;;2.63;2.43;;;6.50;76.60;;;;;;5045740;28;20630;-71
2023/02/19 01:23:12;;;;;;;2.40;2.30;;;6.50;76.70;;;;;;5048263;28;20203;-71
2023/02/19 01:25:41;;;;;;;2.83;2.60;;;6.50;76.70;;;;;;5043161;28;20176;-71
2023/02/19 01:28:09;;;;;;;5.83;2.47;;;6.50;76.80;;;;;;5051825;28;21975;-71
2023/02/19 01:30:36;;;;;;;5.87;3.30;;;6.50;76.40;;;;;;5052348;28;20202;-72
2023/02/19 01:33:03;;;;;;;3.23;2.90;;;6.40;77.00;;;;;;5054325;28;20270;-71
2023/02/19 01:35:29;;;;;;;4.33;3.23;;;6.40;77.10;;;;;;5050257;28;20606;-71
2023/02/19 01:37:54;;;;;;;3.20;2.37;;;6.40;77.10;;;;;;5055688;28;20187;-72
2023/02/19 01:40:20;;;;;;;2.80;2.30;;;6.40;77.00;;;;;;5053005;28;20193;-71
2023/02/19 01:42:46;;;;;;;3.47;2.50;;;6.50;77.00;;;;;;5052931;28;20193;-71
2023/02/19 01:45:23;;;;;;;3.27;2.60;;;6.40;76.90;;;;;;5045390;28;21919;-71
2023/02/19 01:48:00;;;;;;;4.30;2.93;;;6.50;76.40;;;;;;5051783;28;20225;-71
2023/02/19 01:50:29;;;;;;;2.40;2.20;;;6.50;76.30;;;;;;5049929;28;20954;-71
2023/02/19 01:52:55;;;;;;;2.33;2.13;;;6.40;76.80;;;;;;5051971;28;20186;-71
2023/02/19 01:55:22;;;;;;;3.37;2.67;;;6.50;76.60;;;;;;5055383;28;20183;-71
2023/02/19 01:57:52;;;;;;;2.30;2.20;;;6.50;76.40;;;;;;5052657;28;20739;-71
2023/02/19 02:00:18;;;;;;;2.30;2.17;;;6.40;76.40;;;;;;5055442;28;20699;-71
2023/02/19 02:02:49;;;;;;;2.27;2.17;;;6.40;76.10;;;;;;5056818;28;20225;-71
2023/02/19 02:05:41;;;;;;;3.80;1.90;;;6.40;76.40;;;;;;5052397;28;20259;-71
2023/02/19 02:10:52;;;;;;;2.33;2.13;;;6.40;76.40;;;;;;5054471;28;20236;-71
2023/02/19 02:13:18;;;;;;;2.47;2.17;;;6.40;76.20;;;;;;5055263;28;20237;-71
2023/02/19 02:15:50;;;;;;;2.93;2.37;;;6.40;76.70;;;;;;5053213;28;20183;-71
2023/02/19 02:18:44;;;;;;;2.83;2.63;;;6.30;76.80;;;;;;5054148;28;20552;-71
2023/02/19 02:21:43;;;;;;;2.77;1.67;;;6.30;76.90;;;;;;5047847;28;20211;-71
2023/02/19 02:24:21;;;;;;;4.83;2.57;;;6.20;77.10;;;;;;5046943;28;20576;-71
2023/02/19 02:27:05;;;;;;;1.97;1.87;;;6.20;77.10;;;;;;5053262;28;20854;-71
2023/02/19 02:30:01;;;;;;;3.27;2.37;;;6.10;77.30;;;;;;5053304;28;20188;-71
2023/02/19 02:32:36;;;;;;;2.40;2.20;;;6.10;77.90;;;;;;5052379;28;20186;-71
2023/02/19 02:35:09;;;;;;;2.37;2.17;;;6.00;77.60;;;;;;5047756;28;20171;-71
2023/02/19 02:37:38;;;;;;;2.37;1.97;;;6.00;77.80;;;;;;5050472;28;20183;-71
2023/02/19 02:40:07;;;;;;;2.13;2.00;;;6.00;78.10;;;;;;5059757;28;20186;-71
2023/02/19 02:42:34;;;;;;;2.27;2.13;;;6.00;78.10;;;;;;5053675;28;20688;-70
2023/02/19 02:45:33;;;;;;;7.13;2.63;;;5.90;77.90;;;;;;5050109;28;20271;-71
2023/02/19 02:48:12;;;;;;;1.53;1.43;;;6.00;77.80;;;;;;5048312;28;20563;-71
2023/02/19 02:50:45;;;;;;;3.80;2.13;;;6.00;77.70;;;;;;5052024;28;20826;-71
2023/02/19 02:56:04;;;;;;;2.07;1.73;;;6.00;77.70;;;;;;5051054;28;20206;-71
2023/02/19 02:58:31;;;;;;;2.20;2.10;;;6.00;77.80;;;;;;5054298;28;20190;-71
2023/02/19 03:04:11;;;;;;;5.40;1.87;;;6.00;77.70;;;;;;5046607;28;20691;-71
2023/02/19 03:06:37;;;;;;;2.03;1.93;;;6.00;77.90;;;;;;5056531;28;20179;-71
2023/02/19 03:09:17;;;;;;;4.53;2.53;;;6.00;78.10;;;;;;5050210;28;20207;-71
2023/02/19 03:20:30;;;;;;;3.33;1.60;;;6.10;77.80;;;;;;5046925;28;20245;-71
2023/02/19 03:22:57;;;;;;;2.60;2.40;;;6.10;77.70;;;;;;5052825;28;20616;-71
2023/02/19 03:28:16;;;;;;;4.70;2.70;;;6.10;77.70;;;;;;5049467;28;20816;-71
2023/02/19 03:30:49;;;;;;;4.90;2.30;;;6.00;78.00;;;;;;5055344;28;20675;-71
2023/02/19 03:33:21;;;;;;;2.63;2.40;;;6.00;77.70;;;;;;5050641;28;20215;-70
2023/02/19 03:35:52;;;;;;;2.77;2.67;;;6.00;77.90;;;;;;5050926;28;20191;-70
2023/02/19 03:38:27;;;;;;;3.00;1.97;;;6.00;78.00;;;;;;5048556;28;20183;-71
2023/02/19 03:41:10;;;;;;;1.80;1.67;;;5.90;77.90;;;;;;5049632;28;20187;-71
2023/02/19 03:44:02;;;;;;;1.73;1.63;;;5.90;77.80;;;;;;5050801;28;20175;-71
2023/02/19 03:46:54;;;;;;;6.50;2.57;;;5.90;77.90;;;;;;5050709;28;20198;-71
2023/02/19 03:49:27;;;;;;;2.33;2.10;;;5.90;77.90;;;;;;5004053;28;20209;-71
2023/02/19 03:52:03;;;;;;;2.50;2.30;;;5.90;77.90;;;;;;5007775;28;20202;-71
2023/02/19 03:54:34;;;;;;;2.47;2.27;;;6.00;77.90;;;;;;5005476;28;20193;-71
2023/02/19 03:57:06;;;;;;;1.73;1.57;;;5.90;77.90;;;;;;4992306;28;20280;-71
2023/02/19 03:59:41;;;;;;;5.30;1.90;;;5.90;78.20;;;;;;5004256;28;20204;-71
2023/02/19 04:02:30;;;;;;;2.43;1.90;;;5.80;78.10;;;;;;4987102;28;20444;-71
2023/02/19 04:05:08;;;;;;;1.80;1.67;;;5.80;78.10;;;;;;5006170;28;20185;-71
2023/02/19 04:07:37;;;;;;;3.43;1.87;;;5.80;78.20;;;;;;5009485;28;20485;-71
2023/02/19 04:10:06;;;;;;;2.47;2.33;;;5.80;78.60;;;;;;5005670;28;20193;-71
2023/02/19 04:12:34;;;;;;;3.00;2.27;;;5.70;78.40;;;;;;5007800;28;20181;-71
2023/02/19 04:15:12;;;;;;;2.30;2.10;;;5.70;78.70;;;;;;5016318;28;20247;-71
2023/02/19 04:17:56;;;;;;;1.43;1.33;;;5.70;78.50;;;;;;5008014;28;20274;-71
2023/02/19 04:20:26;;;;;;;2.73;2.53;;;5.60;78.50;;;;;;5009129;28;20204;-71
2023/02/19 04:22:51;;;;;;;3.50;2.23;;;5.60;78.70;;;;;;5009165;28;20181;-71
2023/02/19 04:25:17;;;;;;;2.40;2.03;;;5.70;79.30;;;;;;5012918;28;20199;-71
2023/02/19 04:27:44;;;;;;;3.37;1.93;;;5.70;78.90;;;;;;5053502;28;20202;-71
2023/02/19 04:30:13;;;;;;;1.77;1.63;;;5.80;78.60;;;;;;5053227;28;20704;-72
2023/02/19 04:32:38;;;;;;;1.90;1.80;;;5.80;77.70;;;;;;5049407;28;20180;-71
2023/02/19 04:35:04;;;;;;;1.77;1.57;;;5.80;77.60;;;;;;5050885;28;20676;-71
2023/02/19 04:37:30;;;;;;;1.77;1.67;;;5.80;78.00;;;;;;5050265;28;20279;-72
2023/02/19 04:39:56;;;;;;;2.00;1.63;;;5.70;78.00;;;;;;5049272;28;20180;-71
2023/02/19 04:42:21;;;;;;;5.43;1.97;;;5.80;77.80;;;;;;5050990;28;20267;-71
2023/02/19 04:44:47;;;;;;;1.77;1.67;;;5.80;78.00;;;;;;5054705;28;20276;-71
2023/02/19 04:47:16;;;;;;;3.00;2.50;;;5.80;78.10;;;;;;5049008;28;20206;-71
2023/02/19 04:49:42;;;;;;;1.33;1.13;;;5.80;77.90;;;;;;5046014;28;20345;-71
2023/02/19 04:52:08;;;;;;;3.00;1.83;;;5.80;77.90;;;;;;5049814;28;20183;-71
2023/02/19 04:54:34;;;;;;;1.77;1.33;;;5.90;77.50;;;;;;5048835;28;20656;-71
2023/02/19 04:56:59;;;;;;;1.37;1.33;;;5.90;77.50;;;;;;5045225;28;20184;-72
2023/02/19 04:59:25;;;;;;;1.70;1.60;;;5.90;78.00;;;;;;5049400;28;20183;-71
2023/02/19 05:01:51;;;;;;;3.37;1.83;;;5.90;77.90;;;;;;5047330;28;20578;-71
2023/02/19 05:04:16;;;;;;;1.87;1.43;;;5.90;78.50;;;;;;5052308;28;20179;-71
2023/02/19 05:06:42;;;;;;;3.17;1.60;;;5.90;78.10;;;;;;5045399;28;20179;-71
2023/02/19 05:09:08;;;;;;;1.13;1.13;;;5.90;78.30;;;;;;5048733;28;20203;-71
2023/02/19 05:11:34;;;;;;;2.13;1.90;;;6.00;78.10;;;;;;5046638;28;20194;-71
2023/02/19 05:14:00;;;;;;;2.93;1.23;;;6.10;77.50;;;;;;5050007;28;20189;-71
2023/02/19 05:16:26;;;;;;;1.80;1.47;;;6.10;77.60;;;;;;5046766;28;20183;-71
2023/02/19 05:18:51;;;;;;;1.47;1.37;;;6.10;77.50;;;;;;5045021;28;20190;-72
2023/02/19 05:21:17;;;;;;;2.27;1.97;;;6.10;77.60;;;;;;5046524;28;20189;-71
2023/02/19 05:23:43;;;;;;;4.53;2.20;;;6.10;77.30;;;;;;5046474;28;20183;-71
2023/02/19 05:26:16;;;;;;;1.60;1.33;;;6.00;77.50;;;;;;5047365;28;20187;-71
2023/02/19 05:28:43;;;;;;;2.17;0.90;;;6.00;78.10;;;;;;5046210;28;20219;-72
2023/02/19 05:31:10;;;;;;;1.40;1.40;;;5.90;78.40;;;;;;5053784;28;20221;-71
2023/02/19 05:33:36;;;;;;;1.67;1.13;;;5.90;78.20;;;;;;5048572;28;20931;-72
2023/02/19 05:36:09;;;;;;;1.30;1.17;;;6.00;78.20;;;;;;5047319;28;20168;-73
2023/02/19 05:38:35;;;;;;;2.30;1.97;;;6.00;78.30;;;;;;5048694;28;20257;-72
2023/02/19 05:41:18;;;;;;;1.33;1.27;;;6.00;78.30;;;;;;5047296;28;20240;-72
2023/02/19 05:43:45;;;;;;;1.47;1.27;;;6.00;78.20;;;;;;5052534;28;20234;-73
2023/02/19 05:46:13;;;;;;;1.57;1.47;;;6.10;78.50;;;;;;5045923;28;20883;-72
2023/02/19 05:48:39;;;;;;;1.83;1.30;;;6.10;77.80;;;;;;5047981;28;20201;-71
2023/02/19 05:51:12;;;;;;;1.40;1.30;;;6.20;78.20;;;;;;5046318;28;20577;-72
2023/02/19 05:53:39;;;;;;;4.57;1.83;;;6.30;78.00;;;;;;5045757;28;20199;-72
2023/02/19 05:56:29;;;;;;;2.43;2.23;;;6.40;77.70;;;;;;5042201;28;20262;-72
2023/02/19 05:58:55;;;;;;;1.93;1.73;;;6.40;77.90;;;;;;5049023;28;20215;-72
2023/02/19 06:01:23;;;;;;;2.00;1.87;;;6.50;77.70;;;;;;5050044;28;20210;-72
2023/02/19 06:03:49;;;;;;;2.73;2.33;;;6.60;77.90;;;;;;5050147;28;20559;-72
2023/02/19 06:06:17;;;;;;;2.27;1.83;;;6.60;77.90;;;;;;5048518;28;20240;-71
2023/02/19 06:08:43;;;;;;;2.73;2.43;;;6.70;77.60;;;;;;5047468;28;20638;-72
2023/02/19 06:11:09;;;;;;;3.07;2.00;;;6.80;77.50;;;;;;5051256;28;20183;-72
2023/02/19 06:13:35;;;;;;;1.47;1.37;;;6.90;77.20;;;;;;5045132;28;20183;-71
2023/02/19 06:16:05;;;;;;;3.70;2.07;;;7.00;77.10;;;;;;5049481;28;20176;-72
2023/02/19 06:18:31;;;;;;;1.67;1.57;;;7.10;76.60;;;;;;5055966;28;20179;-72
2023/02/19 06:21:04;;;;;;;1.93;1.70;;;7.20;76.70;;;;;;5057742;28;20265;-72
2023/02/19 06:23:30;;;;;;;2.10;1.87;;;7.30;76.30;;;;;;5044431;28;20176;-71
2023/02/19 06:26:20;;;;;;;2.40;1.53;;;7.40;76.30;;;;;;5055574;28;20553;-72
2023/02/19 06:28:47;;;;;;;2.43;1.53;;;7.50;75.90;;;;;;5048290;28;20219;-72
2023/02/19 06:31:13;;;;;;;1.37;1.30;;;7.50;76.00;;;;;;5053590;28;20176;-72
2023/02/19 06:33:39;;;;;;;3.00;1.80;;;7.60;75.80;;;;;;5057173;28;20203;-70
2023/02/19 06:36:09;;;;;;;2.27;2.17;;;7.70;75.60;;;;;;5055889;28;20185;-73
2023/02/19 06:38:35;;;;;;;2.07;1.93;;;7.80;75.30;;;;;;5051324;28;20190;-74
2023/02/19 06:41:02;;;;;;;2.53;2.13;;;7.90;75.40;;;;;;5058830;28;20180;-74
2023/02/19 06:43:29;;;;;;;2.07;2.03;;;8.00;75.10;;;;;;5055980;28;20264;-73
2023/02/19 06:45:58;;;;;;;3.57;2.03;;;8.10;74.80;;;;;;5049783;28;20168;-74
2023/02/19 06:48:26;;;;;;;4.47;2.77;;;8.20;74.80;;;;;;5051465;28;20212;-74
2023/02/19 06:50:53;;;;;;;2.57;2.07;;;8.30;74.70;;;;;;5051167;28;22281;-73
2023/02/19 06:53:19;;;;;;;2.43;2.20;;;8.50;74.40;;;;;;5049531;28;20234;-73
2023/02/19 06:55:58;;;;;;;4.70;2.13;;;8.60;74.30;;;;;;5049317;28;20272;-72
2023/02/19 06:58:24;;;;;;;2.23;2.07;;;8.80;73.60;;;;;;5054068;28;20183;-72
2023/02/19 07:00:50;;;;;;;2.43;2.00;;;8.90;73.50;;;;;;5055799;28;20175;-72
2023/02/19 07:03:16;;;;;;;1.70;1.60;;;9.10;73.40;;;;;;5050779;28;20681;-73
2023/02/19 07:05:42;;;;;;;5.03;2.77;;;9.20;73.00;;;;;;5048382;28;20185;-72
2023/02/19 07:08:08;;;;;;;1.73;1.63;;;9.30;72.70;;;;;;5052923;28;20211;-72
2023/02/19 07:10:34;;;;;;;3.03;1.75;;;9.50;72.10;;;;;;5052612;28;20183;-72
2023/02/19 07:13:00;;;;;;;2.63;1.57;;;9.60;71.10;;;;;;5049364;28;20270;-72
2023/02/19 07:15:25;;;;;;;1.53;1.53;;;9.80;70.80;;;;;;5055545;28;20687;-72
2023/02/19 07:17:51;;;;;;;2.67;1.45;;;9.90;70.40;;;;;;5050805;28;20692;-72
2023/02/19 07:20:16;;;;;;;1.38;1.27;;;10.10;69.80;;;;;;5050692;28;20176;-72
2023/02/19 07:22:42;;;;;;;1.65;1.55;;;10.40;69.60;;;;;;5052185;28;20213;-72
2023/02/19 07:25:08;;;;;;;1.13;1.13;;;10.70;68.80;;;;;;5049764;28;20186;-72
2023/02/19 07:27:33;;;;;;;1.40;1.30;;;11.20;68.60;;;;;;5053405;28;20207;-72
2023/02/19 07:29:59;;;;;;;3.08;1.92;;;11.80;67.40;;;;;;5048611;28;20184;-72
2023/02/19 07:32:25;;;;;;;2.15;1.90;;;12.60;66.40;;;;;;5046246;28;20183;-72
2023/02/19 07:34:50;;;;;;;3.53;1.90;;;13.50;65.30;;;;;;5045498;28;20602;-72
2023/02/19 07:37:16;;;;;;;3.20;2.03;;;14.30;63.90;;;;;;5048983;28;20237;-72
2023/02/19 07:39:42;;;;;;;1.83;1.73;;;15.20;62.10;;;;;;5048395;28;20176;-72
2023/02/19 07:42:07;;;;;;;2.35;2.15;;;16.10;61.50;;;;;;5051793;28;20195;-72
2023/02/19 07:44:33;;;;;;;2.42;2.00;;;17.00;59.30;;;;;;5048741;28;20426;-71
2023/02/19 07:46:58;;;;;;;4.07;2.25;;;17.70;58.00;;;;;;5055415;28;20201;-71
2023/02/19 07:49:24;;;;;;;3.72;2.00;;;18.40;56.20;;;;;;5051058;28;20195;-72
2023/02/19 07:51:50;;;;;;;3.63;2.53;;;19.10;54.90;;;;;;5048155;28;20266;-72
2023/02/19 07:54:15;;;;;;;2.30;2.10;;;19.70;54.20;;;;;;5051839;28;20261;-72
2023/02/19 07:56:41;;;;;;;3.17;2.53;;;20.20;53.80;;;;;;5047424;28;20272;-73
2023/02/19 07:59:07;;;;;;;3.30;2.78;;;20.70;52.90;;;;;;5047293;28;20594;-72
2023/02/19 08:04:16;;;;;;;2.72;2.50;;;21.80;52.50;;;;;;5046424;28;20238;-72
2023/02/19 08:06:42;;;;;;;2.42;2.33;;;22.50;51.30;;;;;;5043990;28;20184;-72
2023/02/19 08:09:08;;;;;;;6.95;2.63;;;23.00;50.70;;;;;;5049397;28;21120;-72
2023/02/19 08:14:18;;;;;;;2.95;2.45;;;24.20;50.00;;;;;;5051274;28;20194;-72
2023/02/19 08:16:51;;;;;;;2.33;2.22;;;24.80;49.00;;;;;;5049919;28;20184;-72
2023/02/19 08:19:17;;;;;;;4.25;2.47;;;25.30;48.60;;;;;;5044373;28;20298;-73
2023/02/19 08:21:43;;;;;;;2.47;2.35;;;25.80;47.10;;;;;;5049570;28;20194;-73
2023/02/19 08:24:09;;;;;;;4.85;2.70;;;26.20;47.20;;;;;;5052773;28;20183;-72
2023/02/19 08:26:35;;;;;;;2.20;2.13;;;26.60;47.20;;;;;;5051544;28;20237;-72
2023/02/19 08:29:01;;;;;;;6.82;2.67;;;26.90;46.20;;;;;;5052134;28;20219;-72
2023/02/19 08:31:27;;;;;;;2.63;2.38;;;27.10;45.90;;;;;;5052051;28;20194;-74
2023/02/19 08:33:52;;;;;;;3.10;2.50;;;27.20;46.60;;;;;;5052029;28;20214;-71
2023/02/19 08:36:18;;;;;;;1.88;1.83;;;27.20;44.90;;;;;;5044147;28;20663;-71
2023/02/19 08:38:44;;;;;;;5.75;2.08;;;26.90;44.80;;;;;;5045882;28;20196;-70
2023/02/19 08:41:11;;;;;;;2.35;1.58;;;26.80;44.90;;;;;;5043969;28;20249;-69
2023/02/19 08:43:38;;;;;;;2.00;1.80;;;27.00;44.90;;;;;;5046854;28;20610;-71
2023/02/19 08:46:05;;;;;;;1.80;1.70;;;27.10;43.70;;;;;;5041158;28;21026;-72
2023/02/19 08:48:31;;;;;;;1.38;1.38;;;27.10;43.40;;;;;;5040078;28;20211;-72
2023/02/19 08:51:05;;;;;;;3.22;1.80;;;27.10;42.90;;;;;;5048205;28;20199;-71
2023/02/19 08:53:32;;;;;;;1.33;1.33;;;26.90;43.70;;;;;;5043016;28;20195;-71
2023/02/19 08:55:58;;;;;;;1.85;1.85;;;26.60;44.20;;;;;;5042895;28;20188;-72
2023/02/19 08:58:25;;;;;;;1.63;1.60;;;26.20;44.40;;;;;;5042504;28;20188;-72
2023/02/19 09:00:51;;;;;;;1.83;1.73;;;26.10;43.80;;;;;;5057363;28;20183;-71
2023/02/19 09:03:17;;;;;;;1.50;1.40;;;25.60;44.70;;;;;;5045805;28;20207;-73
2023/02/19 09:05:45;;;;;;;1.20;1.20;;;25.30;45.00;;;;;;5037988;28;20266;-72
2023/02/19 09:08:11;;;;;;;1.10;1.10;;;25.50;46.00;;;;;;5044549;28;20973;-72
2023/02/19 09:10:37;;;;;;;1.40;1.30;;;25.70;44.70;;;;;;5048087;28;20218;-71
2023/02/19 09:13:03;;;;;;;1.40;1.30;;;25.30;45.10;;;;;;5045473;28;20184;-71
2023/02/19 09:15:29;;;;;;;3.03;1.23;;;25.50;45.40;;;;;;5047024;28;20240;-71
2023/02/19 09:17:55;;;;;;;1.58;1.50;;;25.70;45.20;;;;;;5043636;28;20261;-71
2023/02/19 09:20:21;;;;;;;2.10;1.23;;;25.60;44.20;;;;;;5053307;28;20209;-72
2023/02/19 09:22:47;;;;;;;3.55;1.92;;;25.00;44.70;;;;;;5045370;28;20184;-71
2023/02/19 09:25:12;;;;;;;1.52;1.42;;;24.30;46.10;;;;;;5048647;28;20188;-71
2023/02/19 09:27:38;;;;;;;1.92;1.80;;;24.30;45.90;;;;;;5040398;28;20320;-71
2023/02/19 09:30:04;;;;;;;1.97;1.87;;;24.40;46.50;;;;;;5047765;28;20867;-72
2023/02/19 09:32:30;;;;;;;1.40;1.30;;;24.80;47.20;;;;;;5045089;28;20434;-72
2023/02/19 09:34:56;;;;;;;0.85;0.85;;;25.30;46.00;;;;;;5042806;28;20266;-72
2023/02/19 09:37:26;;;;;;;1.02;0.93;;;25.80;45.20;;;;;;5045930;28;20715;-72
2023/02/19 09:39:52;;;;;;;1.17;1.17;;;26.20;45.40;;;;;;5046515;28;20213;-72
2023/02/19 09:42:23;;;;;;;2.75;1.23;;;26.40;44.60;;;;;;5044692;28;20577;-72
2023/02/19 09:44:51;;;;;;;1.38;1.27;;;26.50;45.00;;;;;;5044385;28;20195;-72
2023/02/19 09:47:26;;;;;;;1.27;1.27;;;26.80;44.30;;;;;;5045296;28;20869;-71
2023/02/19 09:49:58;;;;;;;1.85;1.30;;;26.90;43.80;;;;;;5051765;28;20190;-72
2023/02/19 09:52:39;;;;;;;1.80;1.35;;;26.60;44.00;;;;;;5051026;28;20187;-72
2023/02/19 09:55:35;;;;;;;2.15;1.40;;;26.60;43.70;;;;;;5050076;28;20181;-72
2023/02/19 09:58:07;;;;;;;1.30;1.30;;;26.70;43.40;;;;;;5050599;28;20180;-71
2023/02/19 10:00:36;;;;;;;1.50;1.50;;;26.90;44.30;;;;;;5056286;28;20276;-72
2023/02/19 10:03:08;;;;;;;1.52;1.52;;;27.20;43.00;;;;;;5057395;28;20174;-72
2023/02/19 10:05:34;;;;;;;1.55;1.55;;;27.50;43.20;;;;;;5045515;28;20859;-73
2023/02/19 10:08:05;;;;;;;1.30;1.30;;;28.00;42.60;;;;;;5049221;28;20334;-74
2023/02/19 10:10:33;;;;;;;2.35;1.67;;;28.40;43.00;;;;;;5054157;28;20681;-75
2023/02/19 10:13:21;;;;;;;1.60;1.58;;;28.70;42.60;;;;;;5052580;28;20308;-74
2023/02/19 10:15:48;;;;;;;1.45;1.45;;;29.10;41.60;;;;;;5050881;28;20179;-73
2023/02/19 10:18:20;;;;;;;1.63;1.52;;;29.30;41.70;;;;;;5049739;28;20201;-75
2023/02/19 10:20:47;;;;;;;1.90;1.65;;;29.50;42.20;;;;;;5045270;28;20184;-73
2023/02/19 10:23:15;;;;;;;1.95;1.85;;;29.80;42.50;;;;;;5049886;28;20185;-72
2023/02/19 10:25:47;;;;;;;1.67;1.67;;;30.20;40.00;;;;;;5041128;28;20213;-72
2023/02/19 10:28:21;;;;;;;1.80;1.70;;;30.60;40.90;;;;;;5045821;28;20248;-72
2023/02/19 10:30:53;;;;;;;1.40;1.30;;;30.80;41.00;;;;;;5049015;28;20631;-74
2023/02/19 10:33:20;;;;;;;1.88;1.83;;;31.10;42.20;;;;;;5048759;28;20184;-73
2023/02/19 10:36:06;;;;;;;1.80;1.80;;;31.30;40.10;;;;;;5051030;28;20183;-73
2023/02/19 10:38:39;;;;;;;4.68;2.00;;;31.20;39.20;;;;;;5050817;28;20270;-73
2023/02/19 10:41:12;;;;;;;1.83;1.75;;;31.20;41.60;;;;;;5046453;28;20652;-76
2023/02/19 10:43:42;;;;;;;1.92;1.83;;;30.90;38.30;;;;;;5049669;28;20175;-72
2023/02/19 10:46:17;;;;;;;1.98;1.58;;;30.40;40.40;;;;;;5047945;28;20187;-72
2023/02/19 10:48:53;;;;;;;2.63;2.05;;;30.30;41.10;;;;;;5052534;28;20206;-72
2023/02/19 10:51:24;;;;;;;1.65;1.55;;;30.40;39.90;;;;;;5048459;28;20280;-73
2023/02/19 10:54:02;;;;;;;1.60;1.60;;;30.30;40.00;;;;;;5049789;28;20614;-72
2023/02/19 10:56:30;;;;;;;1.88;1.77;;;30.40;41.10;;;;;;5053992;28;20187;-73
2023/02/19 10:59:33;;;;;;;1.77;1.63;;;30.50;40.70;;;;;;5047991;28;20245;-73
2023/02/19 11:02:02;;;;;;;1.65;1.60;;;30.50;39.70;;;;;;5045777;28;20292;-72
2023/02/19 11:04:33;;;;;;;2.20;1.60;;;30.30;41.10;;;;;;5049453;28;20633;-73
2023/02/19 11:07:10;;;;;;;1.90;1.80;;;30.40;40.40;;;;;;5047008;28;20202;-72
2023/02/19 11:09:44;;;;;;;1.48;1.48;;;30.40;39.70;;;;;;5043123;28;20201;-72
2023/02/19 11:12:22;;;;;;;2.00;1.92;;;30.10;39.40;;;;;;5048320;28;20217;-70
2023/02/19 11:14:47;;;;;;;2.22;1.98;;;29.70;40.80;;;;;;5044235;28;20663;-72
2023/02/19 11:17:29;;;;;;;1.65;1.55;;;29.50;40.80;;;;;;5045831;28;20211;-71
2023/02/19 11:20:04;;;;;;;1.52;1.52;;;29.50;40.90;;;;;;5048973;28;20191;-71
2023/02/19 11:22:39;;;;;;;2.10;1.77;;;29.50;40.80;;;;;;5046573;28;20184;-73
2023/02/19 11:25:14;;;;;;;2.05;1.85;;;29.80;39.90;;;;;;5050121;28;20588;-71
2023/02/19 11:28:03;;;;;;;2.00;1.77;;;30.00;40.20;;;;;;5046692;28;20580;-72
2023/02/19 11:30:29;;;;;;;2.35;1.40;;;30.00;39.20;;;;;;5042573;28;20185;-71
2023/02/19 11:32:55;;;;;;;1.50;1.40;;;30.10;40.80;;;;;;5042636;28;20175;-72
2023/02/19 11:35:23;;;;;;;1.08;0.98;;;30.10;39.40;;;;;;5041229;28;20615;-72
2023/02/19 11:37:58;;;;;;;2.25;1.27;;;30.20;40.00;;;;;;5045107;28;20194;-69
2023/02/19 11:40:38;;;;;;;1.20;1.20;;;29.90;39.50;;;;;;5046863;28;20171;-70
2023/02/19 11:43:52;;;;;;;0.98;0.95;;;29.40;39.30;;;;;;5043238;28;20199;-71
2023/02/19 11:46:55;;;;;;;0.90;0.90;;;28.70;39.40;;;;;;5049433;28;20703;-71
2023/02/19 11:49:29;;;;;;;0.60;0.60;;;28.00;40.00;;;;;;5051901;28;20264;-70
2023/02/19 11:52:13;;;;;;;1.20;1.20;;;26.90;40.50;;;;;;5050313;28;20324;-71
2023/02/19 11:54:42;;;;;;;0.70;0.70;;;26.40;41.60;;;;;;5051041;28;20201;-70
2023/02/19 11:57:27;;;;;;;0.90;0.90;;;26.20;41.60;;;;;;5053383;28;20187;-71
2023/02/19 11:59:58;;;;;;;0.93;0.93;;;26.10;42.40;;;;;;5049055;28;20845;-71
2023/02/19 12:02:30;;;;;;;0.80;0.80;;;26.20;41.30;;;;;;5053403;28;21008;-71
2023/02/19 12:05:08;;;;;;;0.93;0.93;;;26.20;41.50;;;;;;5050588;28;20194;-71
2023/02/19 12:07:58;;;;;;;1.15;0.60;;;26.10;41.40;;;;;;5051467;28;20661;-70
2023/02/19 12:10:46;;;;;;;0.82;0.82;;;26.10;41.60;;;;;;5049275;28;20199;-70
2023/02/19 12:13:23;;;;;;;0.98;0.98;;;26.00;41.20;;;;;;5051395;28;20570;-70
2023/02/19 12:15:56;;;;;;;0.80;0.80;;;26.00;41.50;;;;;;5048523;28;20743;-71
2023/02/19 12:18:30;;;;;;;1.05;1.00;;;26.20;41.30;;;;;;5049839;28;20211;-70
2023/02/19 12:21:38;;;;;;;1.00;1.00;;;26.20;41.80;;;;;;5052142;28;20193;-71
2023/02/19 12:24:07;;;;;;;1.40;0.77;;;26.30;41.70;;;;;;5027999;28;20188;-70
2023/02/19 12:27:18;;;;;;;0.90;0.90;;;26.20;41.20;;;;;;5027691;28;20191;-71
2023/02/19 12:30:16;;;;;;;1.38;1.13;;;25.90;41.30;;;;;;4966840;28;20198;-71
2023/02/19 12:32:45;;;;;;;4.05;3.85;;;25.90;40.70;;;;;;4959656;28;20186;-71
2023/02/19 12:35:29;;;;;;;0.98;0.98;;;25.70;41.20;;;;;;4970540;28;20197;-71
2023/02/19 12:37:54;;;;;;;1.77;0.95;;;25.20;41.00;;;;;;4959920;28;20212;-73
2023/02/19 12:40:29;;;;;;;0.82;0.82;;;25.00;42.00;;;;;;4967404;28;20181;-73
2023/02/19 12:43:22;;;;;;;0.95;0.95;;;24.80;42.60;;;;;;4967498;28;20997;-72
2023/02/19 12:46:18;;;;;;;0.93;0.93;;;25.30;42.30;;;;;;4965817;28;20335;-71
2023/02/19 12:48:47;;;;;;;1.27;1.17;;;25.60;41.30;;;;;;4967646;28;20284;-73
2023/02/19 12:51:37;;;;;;;1.75;1.30;;;25.70;42.60;;;;;;4967691;28;20217;-71
2023/02/19 12:54:26;;;;;;;1.17;1.17;;;26.00;41.40;;;;;;4963408;28;20702;-72
2023/02/19 12:57:14;;;;;;;0.95;0.95;;;26.20;41.60;;;;;;4965085;28;20192;-72
2023/02/19 12:59:56;;;;;;;1.05;1.00;;;26.70;41.50;;;;;;4969089;28;20189;-72
2023/02/19 13:02:27;;;;;;;1.63;1.52;;;27.30;40.90;;;;;;4970857;28;20205;-72
2023/02/19 13:05:13;;;;;;;1.27;1.27;;;27.80;41.10;;;;;;5049994;28;20252;-72
2023/02/19 13:08:04;;;;;;;1.42;1.13;;;27.70;40.60;;;;;;5052043;28;20203;-72
2023/02/19 13:11:06;;;;;;;1.10;1.10;;;27.30;41.40;;;;;;5047404;28;20247;-72
2023/02/19 13:14:23;;;;;;;1.05;1.05;;;27.20;41.30;;;;;;5026419;28;20689;-72
2023/02/19 13:16:54;;;;;;;1.00;1.00;;;27.60;41.00;;;;;;4959687;28;20237;-72
2023/02/19 13:19:20;;;;;;;0.93;0.93;;;27.80;40.80;;;;;;4961048;28;20190;-72
2023/02/19 13:24:41;;;;;;;1.00;1.00;;;28.00;40.60;;;;;;4963730;28;20295;-72
2023/02/19 13:27:35;;;;;;;1.10;1.10;;;27.90;40.40;;;;;;4964851;28;20228;-72
2023/02/19 13:30:25;;;;;;;1.33;1.23;;;27.80;39.60;;;;;;4962921;28;20676;-72
2023/02/19 13:33:17;;;;;;;2.40;1.45;;;27.70;40.00;;;;;;4963678;28;20226;-72
2023/02/19 13:36:04;;;;;;;1.40;1.30;;;27.60;41.00;;;;;;4960560;28;20198;-72
2023/02/19 13:38:41;;;;;;;1.35;1.25;;;27.50;40.90;;;;;;4963594;28;20186;-72
2023/02/19 13:41:17;;;;;;;1.45;1.35;;;27.40;40.20;;;;;;4951740;28;20226;-72
2023/02/19 13:43:45;;;;;;;1.35;1.33;;;27.60;40.90;;;;;;4964623;28;20315;-72
2023/02/19 13:46:15;;;;;;;1.25;1.25;;;27.50;41.70;;;;;;4963563;28;20225;-72